createdAt,value
2017-03-22T00:00:26.084Z,52.19
2017-03-22T00:01:25.550Z,52.19
2017-03-22T00:02:25.886Z,51.89
2017-03-22T00:03:25.603Z,51.97
2017-03-22T00:04:25.948Z,51.97
2017-03-22T00:05:25.664Z,52.09
2017-03-22T00:06:25.993Z,52.35
2017-03-22T00:07:25.709Z,52.16
2017-03-22T00:08:25.742Z,52.25
2017-03-22T00:09:26.076Z,52.16
2017-03-22T00:10:25.792Z,51.97
2017-03-22T00:11:26.132Z,51.97
2017-03-22T00:12:25.846Z,52.06
2017-03-22T00:13:26.192Z,52.16
2017-03-22T00:14:26.211Z,52.35
2017-03-22T00:15:26.268Z,52.25
2017-03-22T00:16:26.256Z,52.16
2017-03-22T00:17:25.983Z,52.25
2017-03-22T00:18:26.010Z,52.06
2017-03-22T00:19:26.039Z,52.19
2017-03-22T00:20:26.379Z,52.06
2017-03-22T00:21:26.400Z,52.35
2017-03-22T00:22:26.429Z,52.25
2017-03-22T00:23:26.146Z,52.25
2017-03-22T00:24:26.175Z,52.25
2017-03-22T00:25:26.516Z,51.97
2017-03-22T00:26:26.223Z,52.35
2017-03-22T00:27:26.250Z,52.16
2017-03-22T00:28:26.286Z,51.58
2017-03-22T00:29:26.305Z,51.68
2017-03-22T00:30:26.333Z,51.77
2017-03-22T00:31:26.677Z,51.87
2017-03-22T00:32:26.388Z,51.77
2017-03-22T00:33:26.417Z,51.77
2017-03-22T00:34:26.757Z,51.68
2017-03-22T00:35:26.467Z,51.77
2017-03-22T00:36:26.491Z,51.68
2017-03-22T00:37:26.523Z,51.77
2017-03-22T00:38:26.864Z,51.68
2017-03-22T00:39:26.583Z,52.06
2017-03-22T00:40:26.919Z,51.77
2017-03-22T00:41:26.640Z,51.87
2017-03-22T00:42:26.661Z,51.68
2017-03-22T00:43:26.685Z,51.58
2017-03-22T00:44:27.030Z,51.77
2017-03-22T00:45:27.052Z,52.06
2017-03-22T00:46:27.074Z,51.48
2017-03-22T00:47:26.800Z,51.68
2017-03-22T00:48:26.825Z,51.77
2017-03-22T00:49:27.162Z,51.77
2017-03-22T00:50:27.191Z,51.68
2017-03-22T00:51:26.902Z,51.68
2017-03-22T00:52:26.927Z,51.77
2017-03-22T00:53:27.273Z,51.87
2017-03-22T00:54:27.304Z,51.87
2017-03-22T00:55:27.013Z,51.77
2017-03-22T00:56:27.042Z,51.77
2017-03-22T00:57:27.379Z,51.87
2017-03-22T00:58:27.107Z,51.77
2017-03-22T00:59:27.121Z,51.58
2017-03-22T01:00:27.150Z,51.77
2017-03-22T01:01:27.170Z,51.48
2017-03-22T01:02:27.199Z,51.58
2017-03-22T01:03:27.547Z,51.68
2017-03-22T01:04:27.256Z,51.97
2017-03-22T01:05:27.593Z,51.87
2017-03-22T01:06:27.310Z,51.87
2017-03-22T01:07:27.650Z,51.39
2017-03-22T01:08:27.681Z,51.58
2017-03-22T01:09:27.396Z,51.36
2017-03-22T01:10:27.416Z,51.26
2017-03-22T01:11:27.761Z,51.39
2017-03-22T01:12:27.478Z,51.77
2017-03-22T01:13:27.499Z,51.58
2017-03-22T01:14:27.533Z,51.26
2017-03-22T01:15:27.557Z,51.39
2017-03-22T01:16:27.574Z,51.48
2017-03-22T01:17:27.918Z,51.1
2017-03-22T01:18:27.955Z,51.07
2017-03-22T01:19:27.972Z,51.07
2017-03-22T01:20:27.688Z,51.36
2017-03-22T01:21:27.716Z,51.26
2017-03-22T01:22:27.742Z,51.36
2017-03-22T01:23:28.076Z,51.36
2017-03-22T01:24:28.107Z,51.17
2017-03-22T01:25:28.140Z,51.17
2017-03-22T01:26:28.160Z,51.17
2017-03-22T01:27:28.190Z,51.36
2017-03-22T01:28:28.223Z,51.17
2017-03-22T01:29:28.247Z,51.36
2017-03-22T01:30:28.268Z,51.36
2017-03-22T01:31:27.985Z,50.88
2017-03-22T01:32:28.326Z,50.78
2017-03-22T01:33:28.341Z,50.78
2017-03-22T01:34:28.379Z,50.69
2017-03-22T01:35:28.091Z,50.78
2017-03-22T01:36:28.686Z,50.88
2017-03-22T01:37:28.145Z,50.88
2017-03-22T01:38:28.173Z,50.78
2017-03-22T01:39:28.511Z,50.98
2017-03-22T01:40:28.539Z,51.07
2017-03-22T01:41:28.812Z,50.98
2017-03-22T01:42:28.589Z,50.88
2017-03-22T01:43:28.617Z,50.98
2017-03-22T01:44:28.642Z,50.98
2017-03-22T01:45:28.671Z,50.78
2017-03-22T01:46:28.949Z,51.07
2017-03-22T01:47:28.732Z,50.88
2017-03-22T01:48:28.451Z,50.78
2017-03-22T01:49:28.786Z,50.49
2017-03-22T01:50:28.807Z,50.98
2017-03-22T01:51:28.775Z,50.69
2017-03-22T01:52:28.863Z,50.4
2017-03-22T01:53:28.577Z,50.3
2017-03-22T01:54:28.905Z,50.59
2017-03-22T01:55:28.942Z,50.3
2017-03-22T01:56:28.907Z,50.49
2017-03-22T01:57:28.996Z,50.4
2017-03-22T01:58:29.021Z,50.3
2017-03-22T01:59:29.050Z,50.3
2017-03-22T02:00:29.078Z,50.4
2017-03-22T02:01:29.350Z,50.3
2017-03-22T02:02:29.132Z,50.21
2017-03-22T02:03:28.849Z,50.11
2017-03-22T02:04:28.878Z,50.21
2017-03-22T02:05:28.898Z,50.3
2017-03-22T02:06:29.179Z,50.11
2017-03-22T02:07:28.950Z,50.3
2017-03-22T02:08:29.296Z,50.01
2017-03-22T02:09:29.313Z,50.3
2017-03-22T02:10:29.349Z,50.3
2017-03-22T02:11:29.621Z,50.4
2017-03-22T02:12:29.414Z,50.4
2017-03-22T02:13:29.432Z,50.59
2017-03-22T02:14:29.140Z,50.3
2017-03-22T02:15:29.165Z,50.21
2017-03-22T02:16:29.445Z,50.4
2017-03-22T02:17:29.547Z,50.11
2017-03-22T02:18:29.564Z,50.3
2017-03-22T02:19:29.272Z,50.3
2017-03-22T02:20:29.613Z,50.59
2017-03-22T02:21:29.585Z,50.21
2017-03-22T02:22:29.666Z,50.21
2017-03-22T02:23:29.711Z,50.59
2017-03-22T02:24:29.720Z,50.01
2017-03-22T02:25:29.437Z,50.49
2017-03-22T02:26:29.720Z,50.69
2017-03-22T02:27:29.490Z,50.4
2017-03-22T02:28:29.832Z,50.11
2017-03-22T02:29:29.856Z,49.82
2017-03-22T02:30:29.568Z,50.01
2017-03-22T02:31:29.597Z,49.82
2017-03-22T02:32:29.621Z,50.01
2017-03-22T02:33:29.962Z,50.11
2017-03-22T02:34:29.988Z,50.11
2017-03-22T02:35:30.016Z,50.11
2017-03-22T02:36:30.040Z,50.11
2017-03-22T02:37:30.070Z,50.01
2017-03-22T02:38:29.784Z,50.01
2017-03-22T02:39:30.119Z,50.09
2017-03-22T02:40:29.836Z,49.73
2017-03-22T02:41:30.176Z,50.11
2017-03-22T02:42:30.201Z,50.21
2017-03-22T02:43:29.922Z,49.99
2017-03-22T02:44:30.254Z,50.18
2017-03-22T02:45:29.967Z,50.01
2017-03-22T02:46:29.995Z,50.4
2017-03-22T02:47:30.028Z,50.11
2017-03-22T02:48:30.050Z,50.11
2017-03-22T02:49:30.390Z,50.11
2017-03-22T02:50:30.102Z,50.21
2017-03-22T02:51:30.127Z,50.27
2017-03-22T02:52:30.470Z,50.21
2017-03-22T02:53:30.553Z,49.63
2017-03-22T02:54:30.522Z,50.11
2017-03-22T02:55:30.551Z,49.89
2017-03-22T02:56:30.575Z,49.99
2017-03-22T02:57:30.608Z,49.79
2017-03-22T02:58:30.630Z,49.53
2017-03-22T02:59:30.658Z,49.79
2017-03-22T03:00:30.686Z,49.99
2017-03-22T03:01:30.399Z,49.6
2017-03-22T03:02:30.988Z,49.99
2017-03-22T03:03:30.453Z,49.89
2017-03-22T03:04:30.482Z,50.09
2017-03-22T03:05:30.503Z,49.89
2017-03-22T03:06:30.844Z,49.79
2017-03-22T03:07:31.115Z,49.79
2017-03-22T03:08:30.585Z,49.79
2017-03-22T03:09:30.926Z,49.7
2017-03-22T03:10:30.642Z,50.18
2017-03-22T03:11:30.974Z,49.99
2017-03-22T03:12:31.255Z,49.99
2017-03-22T03:13:31.031Z,49.89
2017-03-22T03:14:31.057Z,49.6
2017-03-22T03:15:31.086Z,49.99
2017-03-22T03:16:30.798Z,49.99
2017-03-22T03:17:31.383Z,49.89
2017-03-22T03:18:31.172Z,49.99
2017-03-22T03:19:30.877Z,49.6
2017-03-22T03:20:30.898Z,49.6
2017-03-22T03:21:31.240Z,49.41
2017-03-22T03:22:31.210Z,49.6
2017-03-22T03:23:31.300Z,49.79
2017-03-22T03:24:31.325Z,49.6
2017-03-22T03:25:31.033Z,49.7
2017-03-22T03:26:31.058Z,49.6
2017-03-22T03:27:31.651Z,49.6
2017-03-22T03:28:31.432Z,49.6
2017-03-22T03:29:31.456Z,49.51
2017-03-22T03:30:31.485Z,49.41
2017-03-22T03:31:31.234Z,49.41
2017-03-22T03:32:31.784Z,49.7
2017-03-22T03:33:31.560Z,49.32
2017-03-22T03:34:31.592Z,49.6
2017-03-22T03:35:31.624Z,49.22
2017-03-22T03:36:31.330Z,49.22
2017-03-22T03:37:31.355Z,49.22
2017-03-22T03:38:31.689Z,49.41
2017-03-22T03:39:31.723Z,49.6
2017-03-22T03:40:31.747Z,49.22
2017-03-22T03:41:31.781Z,49.22
2017-03-22T03:42:31.802Z,49.22
2017-03-22T03:43:31.519Z,49.22
2017-03-22T03:44:31.851Z,49.02
2017-03-22T03:45:31.892Z,49.6
2017-03-22T03:46:31.597Z,49.41
2017-03-22T03:52:50.161Z,49.51
2017-03-22T03:53:50.179Z,49.32
2017-03-22T03:54:50.219Z,49.32
2017-03-22T03:55:50.232Z,49.7
2017-03-22T03:56:50.272Z,49.6
2017-03-22T03:57:50.542Z,49.6
2017-03-22T03:58:50.326Z,49.6
2017-03-22T03:59:50.343Z,49.51
2017-03-22T04:00:50.372Z,49.51
2017-03-22T04:01:50.413Z,49.41
2017-03-22T04:02:50.677Z,49.6
2017-03-22T04:03:50.449Z,49.51
2017-03-22T04:04:50.171Z,49.51
2017-03-22T04:05:50.506Z,49.6
2017-03-22T04:06:50.528Z,49.51
2017-03-22T04:07:50.808Z,49.51
2017-03-22T04:08:50.594Z,49.6
2017-03-22T04:09:50.612Z,49.7
2017-03-22T04:10:50.324Z,49.7
2017-03-22T04:11:50.669Z,49.6
2017-03-22T04:12:50.630Z,49.22
2017-03-22T04:13:50.401Z,48.93
2017-03-22T04:14:50.429Z,48.93
2017-03-22T04:15:50.779Z,49.12
2017-03-22T04:16:50.488Z,49.22
2017-03-22T04:17:51.085Z,49.41
2017-03-22T04:18:50.846Z,49.12
2017-03-22T04:19:50.557Z,48.93
2017-03-22T04:20:50.903Z,49.12
2017-03-22T04:21:50.615Z,49.12
2017-03-22T04:22:51.208Z,48.83
2017-03-22T04:23:50.665Z,49.32
2017-03-22T04:24:50.697Z,49.12
2017-03-22T04:25:50.722Z,49.12
2017-03-22T04:26:51.058Z,49.41
2017-03-22T04:27:51.032Z,48.93
2017-03-22T04:28:51.121Z,49.02
2017-03-22T04:29:50.838Z,49.22
2017-03-22T04:30:51.175Z,48.93
2017-03-22T04:31:51.191Z,49.12
2017-03-22T04:32:51.472Z,49.51
2017-03-22T04:33:51.257Z,49.22
2017-03-22T04:34:51.272Z,49.02
2017-03-22T04:35:51.306Z,48.93
2017-03-22T04:36:51.019Z,49.12
2017-03-22T04:37:51.608Z,48.93
2017-03-22T04:38:51.384Z,48.83
2017-03-22T04:39:51.409Z,49.12
2017-03-22T04:40:51.437Z,49.02
2017-03-22T04:41:51.142Z,49.02
2017-03-22T04:42:51.740Z,49.02
2017-03-22T04:43:51.516Z,48.93
2017-03-22T04:44:51.541Z,49.02
2017-03-22T04:45:51.566Z,48.93
2017-03-22T04:46:51.595Z,49.02
2017-03-22T04:47:51.307Z,49
2017-03-22T04:48:51.648Z,49.02
2017-03-22T04:49:51.678Z,48.93
2017-03-22T04:50:51.701Z,49.02
2017-03-22T04:51:51.726Z,48.93
2017-03-22T04:52:51.751Z,49.12
2017-03-22T04:53:51.779Z,48.93
2017-03-22T04:54:51.801Z,49.12
2017-03-22T04:55:51.836Z,49.02
2017-03-22T04:56:51.868Z,49.02
2017-03-22T04:57:51.885Z,49.41
2017-03-22T04:58:51.604Z,49.32
2017-03-22T04:59:51.939Z,49.32
2017-03-22T05:00:51.968Z,49.22
2017-03-22T05:01:51.676Z,49.32
2017-03-22T05:02:52.022Z,49.22
2017-03-22T05:03:51.732Z,49.32
2017-03-22T05:04:52.068Z,49.22
2017-03-22T05:05:52.104Z,49.12
2017-03-22T05:06:52.134Z,49.22
2017-03-22T05:07:52.150Z,49.32
2017-03-22T05:08:52.182Z,49
2017-03-22T05:09:52.204Z,49.02
2017-03-22T05:10:52.232Z,48.93
2017-03-22T05:11:52.256Z,49.22
2017-03-22T05:12:52.282Z,49.12
2017-03-22T05:13:52.311Z,49.02
2017-03-22T05:14:52.338Z,49.19
2017-03-22T05:15:52.360Z,49.12
2017-03-22T05:16:52.385Z,49.12
2017-03-22T05:17:52.417Z,49.19
2017-03-22T05:18:52.446Z,49.22
2017-03-22T05:19:52.464Z,49.12
2017-03-22T05:20:52.491Z,49.41
2017-03-22T05:21:52.521Z,49.22
2017-03-22T05:22:52.561Z,49.22
2017-03-22T05:23:52.575Z,49.12
2017-03-22T05:24:52.333Z,48.83
2017-03-22T05:25:52.627Z,49.02
2017-03-22T05:26:52.656Z,49.02
2017-03-22T05:27:52.686Z,48.74
2017-03-22T05:28:52.393Z,49.02
2017-03-22T05:29:52.430Z,48.54
2017-03-22T05:30:52.767Z,48.74
2017-03-22T05:31:52.787Z,48.83
2017-03-22T05:32:52.813Z,48.93
2017-03-22T05:33:53.090Z,48.93
2017-03-22T05:34:52.867Z,48.93
2017-03-22T05:35:52.886Z,49.02
2017-03-22T05:36:52.920Z,49.12
2017-03-22T05:37:52.944Z,49.12
2017-03-22T05:38:52.914Z,49.02
2017-03-22T05:39:53.009Z,48.64
2017-03-22T05:40:52.706Z,48.93
2017-03-22T05:41:53.051Z,48.64
2017-03-22T05:42:53.080Z,48.93
2017-03-22T05:43:53.356Z,48.44
2017-03-22T05:44:52.817Z,48.64
2017-03-22T05:45:52.847Z,48.83
2017-03-22T05:46:53.187Z,48.64
2017-03-22T05:47:53.212Z,49.02
2017-03-22T05:48:53.177Z,48.74
2017-03-22T05:49:53.267Z,48.57
2017-03-22T05:50:53.294Z,48.57
2017-03-22T05:51:53.308Z,48.38
2017-03-22T05:52:53.348Z,48.57
2017-03-22T05:53:53.624Z,48.47
2017-03-22T05:54:53.401Z,48.66
2017-03-22T05:55:53.417Z,48.38
2017-03-22T05:56:53.139Z,48.28
2017-03-22T05:57:53.477Z,48.57
2017-03-22T05:58:53.765Z,48.66
2017-03-22T05:59:53.528Z,48.47
2017-03-22T06:00:53.560Z,48.57
2017-03-22T06:01:53.266Z,47.6
2017-03-22T06:02:53.613Z,47.8
2017-03-22T06:03:53.895Z,47.8
2017-03-22T06:04:53.665Z,48.28
2017-03-22T06:05:53.689Z,47.99
2017-03-22T06:06:53.406Z,47.31
2017-03-22T06:07:53.743Z,47.8
2017-03-22T06:08:53.469Z,47.41
2017-03-22T06:09:53.801Z,47.6
2017-03-22T06:10:53.833Z,47.31
2017-03-22T06:11:53.537Z,47.6
2017-03-22T06:12:53.868Z,47.31
2017-03-22T06:13:53.902Z,47.99
2017-03-22T06:14:53.944Z,47.89
2017-03-22T06:15:53.957Z,47.99
2017-03-22T06:16:53.669Z,47.89
2017-03-22T06:17:53.707Z,47.6
2017-03-22T06:18:54.035Z,47.8
2017-03-22T06:19:54.064Z,47.6
2017-03-22T06:20:54.088Z,47.6
2017-03-22T06:21:54.116Z,47.7
2017-03-22T06:22:54.145Z,47.6
2017-03-22T06:23:54.171Z,47.6
2017-03-22T06:24:54.195Z,47.22
2017-03-22T06:25:54.224Z,47.12
2017-03-22T06:26:53.941Z,47.22
2017-03-22T06:27:54.278Z,47.51
2017-03-22T06:28:53.991Z,47.41
2017-03-22T06:29:54.335Z,47.44
2017-03-22T06:30:54.360Z,47.34
2017-03-22T06:31:54.392Z,47.72
2017-03-22T06:32:54.413Z,47.63
2017-03-22T06:33:54.440Z,47.53
2017-03-22T06:34:54.147Z,47.24
2017-03-22T06:35:54.491Z,47.34
2017-03-22T06:36:54.520Z,47.72
2017-03-22T06:37:54.237Z,47.53
2017-03-22T06:38:54.258Z,47.24
2017-03-22T06:39:54.598Z,47.24
2017-03-22T06:40:54.644Z,47.44
2017-03-22T06:41:54.648Z,47.34
2017-03-22T06:42:54.677Z,47.24
2017-03-22T06:43:54.711Z,47.53
2017-03-22T06:44:54.732Z,47.24
2017-03-22T06:45:54.755Z,47.14
2017-03-22T06:46:54.788Z,47.24
2017-03-22T06:47:54.497Z,47.44
2017-03-22T06:48:54.530Z,47.14
2017-03-22T06:49:54.867Z,47.44
2017-03-22T06:50:54.894Z,47.14
2017-03-22T06:51:54.920Z,47.05
2017-03-22T06:52:54.953Z,47.05
2017-03-22T06:53:54.977Z,47.07
2017-03-22T06:54:54.690Z,47.17
2017-03-22T06:55:55.026Z,46.86
2017-03-22T06:56:55.069Z,46.76
2017-03-22T06:57:54.769Z,47.24
2017-03-22T06:58:55.109Z,46.95
2017-03-22T06:59:55.138Z,47.14
2017-03-22T07:00:55.158Z,47.05
2017-03-22T07:01:55.187Z,47.17
2017-03-22T07:02:55.224Z,46.86
2017-03-22T07:03:55.243Z,46.86
2017-03-22T07:04:55.271Z,46.88
2017-03-22T07:05:55.302Z,46.95
2017-03-22T07:06:55.319Z,46.78
2017-03-22T07:07:55.356Z,46.59
2017-03-22T07:08:55.381Z,46.4
2017-03-22T07:09:55.674Z,46.69
2017-03-22T07:10:55.431Z,46.97
2017-03-22T07:11:55.465Z,46.59
2017-03-22T07:12:55.488Z,46.49
2017-03-22T07:13:55.512Z,46.69
2017-03-22T07:14:55.793Z,46.49
2017-03-22T07:15:55.568Z,46.3
2017-03-22T07:16:55.290Z,46.11
2017-03-22T07:17:55.622Z,46.3
2017-03-22T07:18:55.653Z,46.59
2017-03-22T07:19:55.924Z,46.49
2017-03-22T07:20:55.389Z,46.69
2017-03-22T07:21:55.733Z,46.69
2017-03-22T07:22:55.763Z,46.69
2017-03-22T07:23:55.792Z,46.88
2017-03-22T07:24:56.061Z,46.4
2017-03-22T07:25:55.869Z,46.3
2017-03-22T07:26:55.863Z,46.3
2017-03-22T07:27:55.897Z,46.2
2017-03-22T07:28:55.924Z,46.49
2017-03-22T07:29:56.205Z,46.4
2017-03-22T07:30:55.971Z,46.4
2017-03-22T07:31:55.682Z,46.3
2017-03-22T07:32:56.029Z,46.2
2017-03-22T07:33:56.060Z,46.2
2017-03-22T07:34:56.325Z,46.3
2017-03-22T07:35:55.800Z,46.2
2017-03-22T07:36:56.125Z,46.4
2017-03-22T07:37:56.162Z,46.49
2017-03-22T07:38:56.197Z,46.2
2017-03-22T07:39:56.466Z,46.11
2017-03-22T07:40:56.244Z,46.2
2017-03-22T07:41:56.278Z,46.3
2017-03-22T07:42:56.299Z,45.92
2017-03-22T07:43:56.331Z,46.01
2017-03-22T07:44:56.293Z,46.2
2017-03-22T07:45:56.380Z,46.01
2017-03-22T07:46:56.409Z,46.01
2017-03-22T07:47:56.435Z,46.11
2017-03-22T07:48:56.467Z,45.92
2017-03-22T07:49:56.741Z,46.2
2017-03-22T07:50:56.515Z,45.72
2017-03-22T07:51:56.228Z,46.01
2017-03-22T07:52:56.575Z,46.01
2017-03-22T07:53:56.598Z,45.92
2017-03-22T07:54:56.883Z,45.82
2017-03-22T07:55:56.651Z,45.82
2017-03-22T07:56:56.677Z,46.01
2017-03-22T07:57:56.727Z,45.82
2017-03-22T07:58:56.743Z,45.92
2017-03-22T07:59:56.767Z,46.2
2017-03-22T08:00:56.788Z,46.11
2017-03-22T08:01:56.813Z,46.3
2017-03-22T08:02:56.841Z,46.2
2017-03-22T08:03:56.870Z,46.2
2017-03-22T08:04:56.903Z,46.11
2017-03-22T08:05:56.923Z,46.2
2017-03-22T08:06:56.637Z,46.11
2017-03-22T08:07:56.661Z,46.01
2017-03-22T08:08:56.698Z,45.92
2017-03-22T08:09:57.032Z,46.11
2017-03-22T08:10:57.058Z,46.11
2017-03-22T08:11:57.093Z,45.92
2017-03-22T08:12:56.800Z,46.11
2017-03-22T08:13:56.837Z,45.34
2017-03-22T08:14:57.170Z,45.43
2017-03-22T08:15:56.883Z,46.11
2017-03-22T08:16:57.219Z,46.3
2017-03-22T08:17:56.939Z,45.7
2017-03-22T08:18:57.281Z,45.82
2017-03-22T08:19:57.306Z,45.89
2017-03-22T08:20:57.330Z,46.08
2017-03-22T08:21:57.355Z,46.11
2017-03-22T08:22:57.396Z,46.01
2017-03-22T08:23:57.412Z,45.72
2017-03-22T08:24:57.442Z,46.2
2017-03-22T08:25:57.467Z,45.31
2017-03-22T08:26:57.495Z,45.53
2017-03-22T08:27:57.528Z,45.53
2017-03-22T08:28:57.549Z,45.72
2017-03-22T08:29:57.577Z,45.53
2017-03-22T08:30:57.604Z,45.79
2017-03-22T08:31:57.638Z,45.34
2017-03-22T08:32:57.658Z,45.53
2017-03-22T08:33:57.689Z,45.62
2017-03-22T08:34:57.709Z,45.6
2017-03-22T08:35:57.742Z,45.82
2017-03-22T08:36:57.767Z,45.82
2017-03-22T08:37:57.791Z,45.82
2017-03-22T08:38:57.823Z,45.7
2017-03-22T08:39:57.852Z,45.82
2017-03-22T08:40:57.879Z,45.7
2017-03-22T08:41:57.593Z,45.82
2017-03-22T08:42:57.939Z,45.7
2017-03-22T08:43:57.960Z,45.79
2017-03-22T08:44:57.680Z,45.79
2017-03-22T08:45:58.014Z,45.82
2017-03-22T08:46:58.039Z,45.53
2017-03-22T08:47:58.067Z,45.51
2017-03-22T08:48:58.097Z,45.51
2017-03-22T08:49:58.125Z,45.53
2017-03-22T08:50:58.157Z,45.6
2017-03-22T08:51:58.178Z,46.08
2017-03-22T08:52:58.207Z,46.28
2017-03-22T08:53:58.230Z,46.28
2017-03-22T08:54:58.259Z,45.79
2017-03-22T08:55:58.284Z,45.7
2017-03-22T08:56:58.005Z,46.18
2017-03-22T08:57:58.336Z,45.99
2017-03-22T08:58:58.379Z,46.08
2017-03-22T08:59:58.399Z,45.99
2017-03-22T09:00:58.420Z,46.18
2017-03-22T09:01:58.138Z,46.08
2017-03-22T09:02:58.479Z,45.89
2017-03-22T09:03:58.503Z,45.89
2017-03-22T09:04:58.532Z,45.79
2017-03-22T09:05:58.587Z,45.79
2017-03-22T09:06:58.581Z,45.79
2017-03-22T09:07:58.617Z,45.99
2017-03-22T09:08:58.321Z,45.99
2017-03-22T09:09:58.668Z,45.79
2017-03-22T09:10:58.948Z,45.99
2017-03-22T09:11:58.729Z,45.89
2017-03-22T09:12:58.441Z,45.89
2017-03-22T09:13:58.770Z,45.89
2017-03-22T09:14:58.803Z,45.89
2017-03-22T09:15:59.087Z,45.79
2017-03-22T09:16:58.861Z,46.08
2017-03-22T09:17:58.880Z,45.99
2017-03-22T09:18:58.918Z,46.08
2017-03-22T09:19:58.626Z,45.89
2017-03-22T09:20:59.220Z,46.08
2017-03-22T09:21:58.996Z,46.28
2017-03-22T09:22:59.027Z,45.99
2017-03-22T09:23:59.041Z,45.99
2017-03-22T09:24:59.076Z,45.89
2017-03-22T09:25:59.359Z,45.99
2017-03-22T09:26:58.820Z,45.99
2017-03-22T09:27:59.159Z,46.08
2017-03-22T09:28:59.181Z,46.08
2017-03-22T09:29:59.214Z,45.99
2017-03-22T09:30:59.491Z,46.08
2017-03-22T09:31:59.268Z,46.28
2017-03-22T09:32:59.288Z,46.08
2017-03-22T09:33:59.013Z,45.99
2017-03-22T09:34:59.349Z,45.99
2017-03-22T09:35:59.625Z,45.99
2017-03-22T09:36:59.427Z,46.18
2017-03-22T09:37:59.436Z,46.08
2017-03-22T09:38:59.462Z,46.18
2017-03-22T09:39:59.169Z,45.99
2017-03-22T09:40:59.760Z,45.99
2017-03-22T09:41:59.548Z,46.28
2017-03-22T09:42:59.252Z,46.18
2017-03-22T09:43:59.592Z,46.18
2017-03-22T09:44:59.621Z,46.08
2017-03-22T09:45:59.894Z,46.18
2017-03-22T09:46:59.675Z,46.18
2017-03-22T09:47:59.707Z,46.28
2017-03-22T09:48:59.729Z,46.18
2017-03-22T09:49:59.757Z,45.99
2017-03-22T09:50:59.472Z,46.18
2017-03-22T09:51:59.810Z,45.89
2017-03-22T09:52:59.831Z,46.18
2017-03-22T09:53:59.861Z,45.99
2017-03-22T09:54:59.888Z,46.28
2017-03-22T09:55:59.914Z,45.99
2017-03-22T09:56:59.635Z,45.99
2017-03-22T09:57:59.976Z,45.99
2017-03-22T09:59:00.008Z,45.79
2017-03-22T10:00:00.034Z,45.99
2017-03-22T10:01:00.053Z,45.7
2017-03-22T10:02:00.083Z,46.18
2017-03-22T10:03:00.116Z,45.89
2017-03-22T10:04:00.138Z,46.18
2017-03-22T10:05:00.174Z,45.7
2017-03-22T10:06:00.193Z,46.08
2017-03-22T10:07:00.221Z,45.89
2017-03-22T10:07:59.934Z,46.37
2017-03-22T10:09:00.272Z,45.89
2017-03-22T10:09:59.985Z,45.7
2017-03-22T10:11:00.324Z,45.99
2017-03-22T10:12:00.353Z,45.79
2017-03-22T10:13:00.379Z,45.99
2017-03-22T10:14:00.408Z,45.89
2017-03-22T10:15:00.432Z,45.79
2017-03-22T10:16:00.469Z,45.89
2017-03-22T10:17:00.486Z,45.89
2017-03-22T10:18:00.550Z,45.99
2017-03-22T10:19:00.541Z,45.99
2017-03-22T10:20:00.569Z,45.99
2017-03-22T10:21:00.285Z,45.99
2017-03-22T10:22:00.626Z,45.89
2017-03-22T10:23:00.654Z,45.7
2017-03-22T10:24:00.679Z,45.89
2017-03-22T10:25:00.707Z,45.99
2017-03-22T10:26:00.732Z,45.77
2017-03-22T10:27:00.760Z,45.89
2017-03-22T10:28:00.793Z,45.7
2017-03-22T10:29:00.823Z,46.18
2017-03-22T10:30:00.842Z,45.87
2017-03-22T10:31:00.553Z,45.89
2017-03-22T10:32:00.900Z,45.87
2017-03-22T10:33:00.616Z,45.89
2017-03-22T10:34:00.639Z,45.79
2017-03-22T10:35:00.978Z,45.87
2017-03-22T10:36:01.011Z,46.06
2017-03-22T10:37:01.032Z,45.99
2017-03-22T10:38:01.053Z,45.99
2017-03-22T10:39:00.769Z,46.28
2017-03-22T10:40:00.797Z,45.7
2017-03-22T10:41:01.136Z,46.15
2017-03-22T10:42:00.857Z,45.97
2017-03-22T10:43:01.193Z,46.18
2017-03-22T10:44:01.217Z,45.99
2017-03-22T10:45:00.935Z,45.97
2017-03-22T10:46:01.281Z,46.15
2017-03-22T10:47:01.305Z,46.15
2017-03-22T10:48:01.333Z,46.25
2017-03-22T10:49:01.358Z,46.08
2017-03-22T10:50:01.386Z,46.08
2017-03-22T10:51:01.411Z,46.18
2017-03-22T10:52:01.440Z,46.18
2017-03-22T10:53:01.460Z,45.99
2017-03-22T10:54:01.492Z,46.06
2017-03-22T10:55:01.522Z,45.89
2017-03-22T10:56:01.230Z,45.68
2017-03-22T10:57:01.576Z,45.68
2017-03-22T10:58:01.599Z,46.08
2017-03-22T10:59:01.628Z,45.97
2017-03-22T11:00:01.656Z,45.99
2017-03-22T11:01:01.678Z,45.41
2017-03-22T11:02:01.400Z,45.68
2017-03-22T11:03:01.736Z,46.18
2017-03-22T11:04:01.763Z,45.29
2017-03-22T11:05:01.788Z,46.15
2017-03-22T11:06:01.814Z,45.58
2017-03-22T11:07:01.842Z,45.48
2017-03-22T11:08:01.575Z,45.77
2017-03-22T11:09:01.895Z,45.39
2017-03-22T11:10:01.924Z,45.48
2017-03-22T11:11:01.957Z,45.7
2017-03-22T11:12:01.978Z,45.7
2017-03-22T11:13:02.014Z,45.77
2017-03-22T11:14:02.032Z,45.48
2017-03-22T11:15:02.060Z,45.39
2017-03-22T11:16:02.080Z,45.77
2017-03-22T11:17:02.366Z,45.87
2017-03-22T11:18:02.143Z,45.77
2017-03-22T11:19:02.167Z,45.58
2017-03-22T11:20:01.884Z,45.77
2017-03-22T11:21:02.221Z,45.77
2017-03-22T11:22:02.501Z,45.58
2017-03-22T11:23:02.277Z,45.77
2017-03-22T11:24:02.303Z,45.48
2017-03-22T11:25:02.019Z,45.68
2017-03-22T11:26:02.356Z,45.58
2017-03-22T11:27:02.645Z,45.87
2017-03-22T11:28:02.414Z,45.58
2017-03-22T11:29:02.439Z,45.77
2017-03-22T11:30:02.468Z,45.87
2017-03-22T11:31:02.489Z,45.77
2017-03-22T11:32:02.776Z,45.58
2017-03-22T11:33:02.545Z,45.77
2017-03-22T11:34:02.584Z,45.58
2017-03-22T11:35:02.604Z,45.68
2017-03-22T11:36:02.629Z,45.68
2017-03-22T11:37:02.903Z,45.77
2017-03-22T11:38:02.369Z,45.68
2017-03-22T11:39:02.709Z,45.77
2017-03-22T11:40:02.738Z,45.87
2017-03-22T11:41:02.446Z,45.68
2017-03-22T11:42:02.797Z,45.87
2017-03-22T11:43:02.813Z,45.87
2017-03-22T11:44:02.845Z,45.97
2017-03-22T11:45:02.882Z,45.97
2017-03-22T11:46:02.591Z,45.87
2017-03-22T11:47:02.932Z,45.58
2017-03-22T11:48:02.951Z,45.87
2017-03-22T11:49:02.980Z,46.15
2017-03-22T11:50:03.013Z,46.06
2017-03-22T11:51:03.035Z,45.97
2017-03-22T11:52:03.068Z,45.97
2017-03-22T11:53:03.088Z,46.06
2017-03-22T11:54:03.120Z,45.77
2017-03-22T11:55:03.140Z,45.87
2017-03-22T11:56:03.177Z,45.97
2017-03-22T11:57:03.195Z,45.87
2017-03-22T11:58:03.219Z,45.87
2017-03-22T11:59:02.938Z,45.58
2017-03-22T12:00:03.277Z,46.06
2017-03-22T12:01:03.314Z,45.87
2017-03-22T12:02:03.329Z,45.97
2017-03-22T12:03:03.351Z,45.87
2017-03-22T12:04:03.384Z,45.97
2017-03-22T12:05:03.408Z,45.87
2017-03-22T12:06:03.449Z,45.87
2017-03-22T12:07:03.463Z,45.77
2017-03-22T12:08:03.185Z,45.48
2017-03-22T12:09:03.520Z,45.97
2017-03-22T12:10:03.551Z,45.87
2017-03-22T12:11:03.570Z,45.87
2017-03-22T12:12:03.610Z,45.97
2017-03-22T12:13:03.626Z,45.48
2017-03-22T12:14:03.655Z,45.97
2017-03-22T12:15:03.689Z,45.48
2017-03-22T12:16:03.709Z,45.1
2017-03-22T12:17:03.738Z,45.2
2017-03-22T12:18:03.763Z,45.1
2017-03-22T12:19:03.790Z,45.39
2017-03-22T12:20:03.813Z,45.39
2017-03-22T12:21:03.840Z,45
2017-03-22T12:22:03.874Z,44.9
2017-03-22T12:23:03.906Z,45.1
2017-03-22T12:24:03.612Z,45.1
2017-03-22T12:25:03.955Z,45.2
2017-03-22T12:26:03.977Z,45.48
2017-03-22T12:27:04.009Z,45.58
2017-03-22T12:28:04.031Z,45.1
2017-03-22T12:29:04.066Z,45.29
2017-03-22T12:30:04.101Z,45.29
2017-03-22T12:31:04.127Z,45.29
2017-03-22T12:32:04.144Z,45.2
2017-03-22T12:33:03.859Z,45.1
2017-03-22T12:34:04.204Z,45.2
2017-03-22T12:35:04.220Z,45.29
2017-03-22T12:36:03.940Z,45.2
2017-03-22T12:37:04.279Z,45.29
2017-03-22T12:38:04.308Z,45.29
2017-03-22T12:39:04.020Z,45.48
2017-03-22T12:40:04.053Z,45.2
2017-03-22T12:41:04.084Z,45.2
2017-03-22T12:42:04.412Z,45.48
2017-03-22T12:43:04.440Z,45.48
2017-03-22T12:44:04.462Z,45.48
2017-03-22T12:45:04.494Z,45.48
2017-03-22T12:46:04.523Z,45.58
2017-03-22T12:47:04.548Z,45.58
2017-03-22T12:48:04.573Z,45.21
2017-03-22T12:49:04.601Z,45.2
2017-03-22T12:50:04.319Z,45.29
2017-03-22T12:51:04.660Z,45.1
2017-03-22T12:52:04.683Z,45.1
2017-03-22T12:53:04.966Z,45.03
2017-03-22T12:54:04.734Z,45.21
2017-03-22T12:55:04.779Z,44.73
2017-03-22T12:56:04.790Z,45.03
2017-03-22T12:57:04.821Z,44.73
2017-03-22T12:58:05.121Z,44.35
2017-03-22T12:59:04.874Z,44.93
2017-03-22T13:00:04.902Z,44.83
2017-03-22T13:01:04.927Z,44.64
2017-03-22T13:02:04.959Z,44.73